Login

other
photos/albums/

page 1 / 2next >
20041031_001 || CYBERSHOT@10 | 1/1000s | f6.3 | ISO100 || 2004-10-31 11:35:45
20041031_002 || CYBERSHOT@24 | 1/640s | f10 | ISO100 || 2004-10-31 11:40:28
20041031_003 || CYBERSHOT@9 | 1/50s | f3.2 | ISO160 || 2004-10-31 20:52:14
20041031_004 || CYBERSHOT@9 | 1/30s | f3.2 | ISO320 || 2004-10-31 20:52:52
20041222_005 || Canon Powe/5.4 - 16.2mm@5 | 1/640s | f2.8 | ISO50 || 2004-12-22 21:02:06
20050108_006 || Canon Powe/5.4 - 16.2mm@7 | 1/60s | f3.2 | ISO63 || 2005-01-08 02:36:11
20050321_007 || Canon Powe/5.4 - 16.2mm@11 | 1/60s | f4 | ISO141 || 2005-03-21 21:13:26
20050325_008 || Canon Powe/5.4 - 16.2mm@9 | 1/500s | f3.5 | ISO50 || 2005-03-25 14:37:39
James Graduation || Canon Powe/5.4 - 16.2mm@5 | 1/500s | f2.8 | ISO50 || 2005-06-16 18:24:43
20050618_010 || Canon Powe/5.4 - 16.2mm@5 | 1/8s | f2.8 | ISO141 || 2005-06-18 01:19:06
20050618_011 || Canon Powe/5.4 - 16.2mm@5 | 1/8s | f2.8 | ISO141 || 2005-06-18 01:19:16
20050618_012 || Canon Powe/5.4 - 16.2mm@5 | 1/8s | f2.8 | ISO141 || 2005-06-18 01:19:33
20050618_013 || Canon Powe/5.4 - 16.2mm@5 | 1/8s | f2.8 | ISO141 || 2005-06-18 01:20:16
20050730_014 || Canon Powe/5.4 - 16.2mm@5 | 1/60s | f2.8 | ISO50 || 2005-07-30 19:28:28
20050730_015 || Canon Powe/5.4 - 16.2mm@5 | 1/60s | f2.8 | ISO50 || 2005-07-30 23:09:31
20050730_016 || Canon Powe/5.4 - 16.2mm@5 | 1/60s | f2.8 | ISO50 || 2005-07-30 23:10:14
20051225_017 || Canon Powe/5.4 - 16.2mm@11 | 1/60s | f4 | ISO111 || 2005-12-25 12:49:57
20051230_018 || Canon Powe/5.4 - 16.2mm@9 | 1/60s | f3.5 | ISO50 || 2005-12-30 11:37:04
Seiko Kinetic || Canon Powe/5.4 - 16.2mm@5 | 1/60s | f2.8 | ISO50 || 2005-12-31 13:30:02
20060223_020 || Canon Powe/5.4 - 16.2mm@5 | 1/60s | f2.8 | ISO66 || 2006-02-23 22:25:22
20060716_021 || Canon Powe/5.4 - 16.2mm@6 | 1/320s | f5.6 | ISO50 || 2006-07-16 14:24:56
20060716_022 || Canon Powe/5.4 - 16.2mm@6 | 1/320s | f5.6 | ISO50 || 2006-07-16 14:25:18
20060912_023 || Canon Powe/5.4 - 16.2mm@5 | 1/60s | f2.8 | ISO100 || 2006-09-12 00:47:12
20061206_024 || Canon Powe/5.4 - 16.2mm@5 | 1/60s | f2.8 | ISO100 || 2006-12-06 10:09:52

Albums:
mom_cali
mom_cali (47)
scans
scans (48)
gdc 03
gdc 03 (17)
Tags in photos shown here:
people (1)
Jane (2)
James (2)
Bob (2)
Andy (5)
Cassidy (6)
Kipper (3)